Time;durP1;ratioP1;P1;durP2;ratioP2;P2;SDS_P1;SDS_P2;PMS_P1;PMS_P2;Temp;Humidity;BMP_temperature;BMP_pressure;BME280_temperature;BME280_humidity;BME280_pressure;Samples;Min_cycle;Max_cycle;Signal;HPM_P1;HPM_P2
2023/09/21 00:01:03;;;;;;;4.40;1.52;;;17.50;99.90;;;;;;6187423;23;20723;-91
2023/09/21 00:03:32;;;;;;;4.30;1.30;;;17.50;99.90;;;;;;6188340;22;20429;-93
2023/09/21 00:05:58;;;;;;;2.05;1.10;;;17.50;99.90;;;;;;6188021;23;20413;-91
2023/09/21 00:08:24;;;;;;;3.80;1.40;;;17.50;99.90;;;;;;6185987;23;20925;-92
2023/09/21 00:10:51;;;;;;;3.90;1.20;;;17.50;99.90;;;;;;6188058;23;20369;-90
2023/09/21 00:13:17;;;;;;;4.38;1.10;;;17.50;99.90;;;;;;6186199;23;20362;-91
2023/09/21 00:15:44;;;;;;;4.47;1.42;;;17.60;99.90;;;;;;6187792;23;20448;-91
2023/09/21 00:18:10;;;;;;;5.20;1.30;;;17.50;99.90;;;;;;6186416;23;20369;-91
2023/09/21 00:20:42;;;;;;;2.45;0.90;;;17.50;99.90;;;;;;6187383;23;20398;-91
2023/09/21 00:23:08;;;;;;;3.13;1.35;;;17.60;99.90;;;;;;6188031;23;20374;-92
2023/09/21 00:25:35;;;;;;;3.60;1.20;;;17.80;99.90;;;;;;6187021;23;20366;-93
2023/09/21 00:28:07;;;;;;;3.63;1.25;;;17.60;99.90;;;;;;6188136;23;20363;-91
2023/09/21 00:30:41;;;;;;;2.75;1.10;;;17.70;99.90;;;;;;6185475;23;20695;-92
2023/09/21 00:33:07;;;;;;;3.70;1.33;;;17.70;99.90;;;;;;6187867;23;20850;-92
2023/09/21 00:35:39;;;;;;;2.73;1.33;;;17.70;99.90;;;;;;6186396;23;20378;-93
2023/09/21 00:38:10;;;;;;;2.22;1.20;;;18.00;99.90;;;;;;6186462;23;20445;-92
2023/09/21 00:40:39;;;;;;;3.38;1.17;;;17.80;99.90;;;;;;6187780;23;20473;-92
2023/09/21 00:43:06;;;;;;;4.23;1.30;;;17.90;99.90;;;;;;6186894;23;20416;-91
2023/09/21 00:45:36;;;;;;;4.70;1.30;;;18.00;99.90;;;;;;6188167;23;20871;-92
2023/09/21 00:48:04;;;;;;;2.80;1.08;;;17.90;99.90;;;;;;6185798;23;20398;-93
2023/09/21 00:50:31;;;;;;;3.80;1.20;;;17.90;99.90;;;;;;6187491;23;20374;-93
2023/09/21 00:52:57;;;;;;;4.30;1.10;;;17.90;99.90;;;;;;6186277;23;20385;-91
2023/09/21 00:55:30;;;;;;;3.58;1.20;;;18.20;99.90;;;;;;6186552;23;20713;-92
2023/09/21 00:58:02;;;;;;;2.50;1.00;;;17.90;99.90;;;;;;6187545;23;20758;-92
2023/09/21 01:00:30;;;;;;;2.70;1.08;;;18.40;99.90;;;;;;6185523;23;20477;-92
2023/09/21 01:03:00;;;;;;;3.10;1.20;;;17.90;99.90;;;;;;6187439;23;20362;-92
2023/09/21 01:05:26;;;;;;;3.90;1.25;;;17.90;99.90;;;;;;6185363;23;20366;-92
2023/09/21 01:07:52;;;;;;;2.60;1.10;;;17.90;99.90;;;;;;6187417;23;20377;-91
2023/09/21 01:10:21;;;;;;;3.97;1.42;;;18.00;99.90;;;;;;6186422;23;20457;-92
2023/09/21 01:12:51;;;;;;;3.60;1.10;;;17.90;99.90;;;;;;6187215;23;20514;-91
2023/09/21 01:15:18;;;;;;;4.53;1.00;;;18.00;99.90;;;;;;6186877;23;20370;-90
2023/09/21 01:17:46;;;;;;;4.25;1.00;;;18.20;99.90;;;;;;6186091;23;20454;-94
2023/09/21 01:20:23;;;;;;;3.40;1.08;;;17.80;99.90;;;;;;6187610;23;20362;-92
2023/09/21 01:23:04;;;;;;;2.83;1.02;;;18.10;99.90;;;;;;6185872;23;20452;-92
2023/09/21 01:25:30;;;;;;;4.00;1.02;;;18.10;99.90;;;;;;6187049;23;20863;-94
2023/09/21 01:27:55;;;;;;;3.13;1.20;;;18.10;99.90;;;;;;6187477;23;20519;-92
2023/09/21 01:30:22;;;;;;;3.80;1.20;;;18.20;99.90;;;;;;6186697;23;20382;-92
2023/09/21 01:32:48;;;;;;;3.10;1.30;;;18.20;99.90;;;;;;6186956;23;20370;-91
2023/09/21 01:35:16;;;;;;;4.85;1.30;;;18.10;99.90;;;;;;6185657;23;20370;-92
2023/09/21 01:37:41;;;;;;;3.70;0.93;;;18.20;99.90;;;;;;6186599;23;20366;-92
2023/09/21 01:40:17;;;;;;;3.33;0.90;;;18.50;99.90;;;;;;6185158;23;20443;-90
2023/09/21 01:42:48;;;;;;;3.67;1.05;;;18.20;99.90;;;;;;6187382;23;20461;-92
2023/09/21 01:45:17;;;;;;;3.42;1.00;;;18.20;99.90;;;;;;6185578;23;20427;-92
2023/09/21 01:47:46;;;;;;;3.20;0.97;;;18.00;99.90;;;;;;6187230;23;20376;-92
2023/09/21 01:50:15;;;;;;;3.27;0.97;;;18.30;99.90;;;;;;6186789;23;20373;-93
2023/09/21 01:52:41;;;;;;;3.55;1.10;;;18.40;99.90;;;;;;6186404;23;20397;-92
2023/09/21 01:55:10;;;;;;;2.72;0.75;;;18.40;99.90;;;;;;6187476;23;20385;-95
2023/09/21 01:57:40;;;;;;;3.60;1.00;;;18.30;99.90;;;;;;6184879;23;20851;-93
2023/09/21 02:00:25;;;;;;;3.38;1.10;;;18.30;99.90;;;;;;6187458;23;20703;-90
2023/09/21 02:02:52;;;;;;;2.57;0.70;;;18.30;99.90;;;;;;6186054;23;20370;-94
2023/09/21 02:05:18;;;;;;;2.90;1.00;;;18.50;99.90;;;;;;6185993;23;20464;-91
2023/09/21 02:07:45;;;;;;;2.67;0.80;;;18.30;99.90;;;;;;6187137;23;20913;-93
2023/09/21 02:10:11;;;;;;;2.50;1.02;;;18.20;99.90;;;;;;6186185;23;20381;-92
2023/09/21 02:12:38;;;;;;;3.00;0.90;;;18.30;99.90;;;;;;6187153;23;20746;-92
2023/09/21 02:15:10;;;;;;;2.65;0.82;;;18.30;99.90;;;;;;6185574;23;20364;-94
2023/09/21 02:17:40;;;;;;;2.40;0.80;;;18.20;99.90;;;;;;6187426;23;20974;-92
2023/09/21 02:20:15;;;;;;;3.50;1.00;;;18.20;99.90;;;;;;6185659;23;20465;-91
2023/09/21 02:22:47;;;;;;;4.45;1.05;;;18.20;99.90;;;;;;6186684;23;20439;-93
2023/09/21 02:25:13;;;;;;;4.40;1.10;;;18.60;99.90;;;;;;6186199;23;20374;-90
2023/09/21 02:27:40;;;;;;;2.95;1.00;;;18.60;99.90;;;;;;6186075;23;20799;-91
2023/09/21 02:30:16;;;;;;;3.80;0.90;;;18.20;99.90;;;;;;6186315;23;20695;-91
2023/09/21 02:32:49;;;;;;;5.07;0.95;;;18.20;99.90;;;;;;6185393;23;20366;-91
2023/09/21 02:35:26;;;;;;;2.90;0.95;;;18.00;99.90;;;;;;6186469;23;20834;-91
2023/09/21 02:37:52;;;;;;;2.65;1.08;;;18.20;99.90;;;;;;6186853;23;20377;-91
2023/09/21 02:40:19;;;;;;;2.97;0.90;;;18.30;99.90;;;;;;6188101;23;20392;-92
2023/09/21 02:42:48;;;;;;;2.90;0.87;;;18.50;99.90;;;;;;6188678;23;20406;-90
2023/09/21 02:45:16;;;;;;;4.10;1.40;;;18.20;99.90;;;;;;6187125;23;20366;-92
2023/09/21 02:47:42;;;;;;;3.07;1.10;;;18.20;99.90;;;;;;6188853;23;20370;-91
2023/09/21 02:50:15;;;;;;;2.90;0.95;;;18.10;99.90;;;;;;6186853;23;20361;-92
2023/09/21 02:52:50;;;;;;;2.17;0.82;;;18.20;99.90;;;;;;6188612;23;20409;-92
2023/09/21 02:55:20;;;;;;;2.30;0.88;;;18.50;99.90;;;;;;6187311;23;20385;-92
2023/09/21 02:57:49;;;;;;;3.88;1.02;;;18.30;99.90;;;;;;6187773;23;20384;-91
2023/09/21 03:00:34;;;;;;;3.10;0.98;;;18.70;99.90;;;;;;6187718;23;20439;-92
2023/09/21 03:03:01;;;;;;;4.35;0.98;;;18.20;99.90;;;;;;6186542;23;20373;-91
2023/09/21 03:05:27;;;;;;;2.72;1.00;;;18.40;99.90;;;;;;6188491;23;20916;-90
2023/09/21 03:07:56;;;;;;;2.15;1.00;;;18.20;99.90;;;;;;6187022;23;20369;-91
2023/09/21 03:10:28;;;;;;;3.28;1.00;;;18.60;99.90;;;;;;6188543;23;20378;-92
2023/09/21 03:12:54;;;;;;;2.72;1.00;;;18.30;99.90;;;;;;6187672;23;20373;-91
2023/09/21 03:15:20;;;;;;;2.78;0.90;;;18.10;99.90;;;;;;6187606;23;20366;-92
2023/09/21 03:17:47;;;;;;;3.40;1.10;;;18.30;99.90;;;;;;6188269;23;20398;-92
2023/09/21 03:20:37;;;;;;;2.97;0.90;;;18.60;99.90;;;;;;6187491;23;20358;-90
2023/09/21 03:23:09;;;;;;;2.25;0.70;;;18.40;99.90;;;;;;6213239;23;20897;-90
2023/09/21 03:25:43;;;;;;;3.40;1.05;;;18.40;99.90;;;;;;6187642;23;20366;-92
2023/09/21 03:28:13;;;;;;;2.65;0.77;;;18.40;99.90;;;;;;6187628;23;20437;-92
2023/09/21 03:30:43;;;;;;;4.95;0.90;;;18.40;99.90;;;;;;6188039;23;20397;-94
2023/09/21 03:33:09;;;;;;;3.40;0.93;;;18.40;99.90;;;;;;6187279;23;20366;-92
2023/09/21 03:35:37;;;;;;;3.92;1.17;;;18.60;99.90;;;;;;6188124;23;20444;-92
2023/09/21 03:38:06;;;;;;;2.80;0.70;;;18.80;99.90;;;;;;6186280;23;20457;-91
2023/09/21 03:40:35;;;;;;;2.80;0.82;;;18.50;99.90;;;;;;6188374;23;20456;-92
2023/09/21 03:43:01;;;;;;;4.38;1.05;;;18.50;99.90;;;;;;6187035;23;20358;-92
2023/09/21 03:45:26;;;;;;;4.47;0.90;;;18.70;99.90;;;;;;6187627;23;20374;-91
2023/09/21 03:47:53;;;;;;;2.67;1.00;;;18.50;99.90;;;;;;6187057;23;20458;-91
2023/09/21 03:50:19;;;;;;;2.20;1.00;;;18.70;99.90;;;;;;6211816;23;20453;-92
2023/09/21 03:52:45;;;;;;;4.27;1.00;;;18.80;99.90;;;;;;6188258;23;20409;-92
2023/09/21 03:55:15;;;;;;;3.63;1.00;;;18.80;99.90;;;;;;6187119;23;20847;-91
2023/09/21 03:57:46;;;;;;;2.92;0.80;;;18.60;99.90;;;;;;6188702;23;20370;-90
2023/09/21 04:00:36;;;;;;;3.35;1.00;;;18.60;99.90;;;;;;6187567;23;20687;-91
2023/09/21 04:03:20;;;;;;;3.38;0.90;;;18.60;99.90;;;;;;6187739;23;21039;-92
2023/09/21 04:05:46;;;;;;;3.60;1.00;;;18.70;99.90;;;;;;6188282;23;20378;-92
2023/09/21 04:08:12;;;;;;;3.47;1.00;;;18.90;99.90;;;;;;6187100;23;20828;-93
2023/09/21 04:10:37;;;;;;;2.67;0.90;;;18.70;99.90;;;;;;6188793;23;20401;-92
2023/09/21 04:13:05;;;;;;;2.92;1.00;;;18.60;99.90;;;;;;6186340;23;20416;-91
2023/09/21 04:15:31;;;;;;;3.00;0.60;;;19.00;99.90;;;;;;6189769;23;20417;-93
2023/09/21 04:18:01;;;;;;;3.15;1.00;;;18.50;99.90;;;;;;6187168;23;20370;-93
2023/09/21 04:20:31;;;;;;;3.28;0.80;;;18.60;99.90;;;;;;6187315;23;20362;-92
2023/09/21 04:22:57;;;;;;;3.75;1.10;;;18.70;99.90;;;;;;6212582;23;20362;-93
2023/09/21 04:25:22;;;;;;;2.53;0.90;;;18.60;99.90;;;;;;6186255;23;20382;-91
2023/09/21 04:27:50;;;;;;;3.60;0.90;;;18.60;99.90;;;;;;6187417;23;20366;-91
2023/09/21 04:30:18;;;;;;;4.43;0.95;;;18.70;99.90;;;;;;6186964;23;20366;-91
2023/09/21 04:32:46;;;;;;;3.05;0.80;;;18.40;99.90;;;;;;6187729;23;20373;-90
2023/09/21 04:35:18;;;;;;;2.23;0.87;;;18.50;99.90;;;;;;6186976;23;20358;-91
2023/09/21 04:37:44;;;;;;;3.05;0.80;;;18.60;99.90;;;;;;6186703;23;20437;-92
2023/09/21 04:40:11;;;;;;;2.10;0.70;;;18.70;99.90;;;;;;6187224;23;20362;-92
2023/09/21 04:42:38;;;;;;;3.55;1.00;;;18.50;99.90;;;;;;6186980;23;20722;-93
2023/09/21 04:45:15;;;;;;;2.87;0.80;;;18.50;99.90;;;;;;6188097;23;20366;-92
2023/09/21 04:47:43;;;;;;;3.13;1.02;;;18.60;99.90;;;;;;6186371;23;20466;-91
2023/09/21 04:50:22;;;;;;;2.60;0.98;;;18.50;99.90;;;;;;6187688;23;20763;-92
2023/09/21 04:52:48;;;;;;;4.68;1.10;;;18.50;99.90;;;;;;6186906;23;20378;-92
2023/09/21 04:55:16;;;;;;;3.15;0.82;;;18.40;99.90;;;;;;6186603;23;20774;-93
2023/09/21 04:57:42;;;;;;;3.47;0.90;;;18.70;99.90;;;;;;6187204;23;20366;-91
2023/09/21 05:00:10;;;;;;;3.50;1.02;;;18.10;99.90;;;;;;6186049;23;20362;-92
2023/09/21 05:02:36;;;;;;;3.50;0.90;;;18.40;99.90;;;;;;6187720;23;20520;-92
2023/09/21 05:05:02;;;;;;;3.45;0.70;;;18.40;99.90;;;;;;6185943;23;20394;-92
2023/09/21 05:07:28;;;;;;;2.00;0.97;;;18.40;99.90;;;;;;6187816;23;20370;-91
2023/09/21 05:09:54;;;;;;;3.10;0.98;;;18.60;99.90;;;;;;6186647;23;20665;-91
2023/09/21 05:12:20;;;;;;;2.45;1.10;;;18.40;99.90;;;;;;6187198;23;20408;-92
2023/09/21 05:14:47;;;;;;;3.20;0.98;;;18.60;99.90;;;;;;6187048;23;20366;-92
2023/09/21 05:17:13;;;;;;;2.10;0.82;;;18.40;99.90;;;;;;6186694;23;20460;-91
2023/09/21 05:19:38;;;;;;;2.35;0.90;;;18.30;99.90;;;;;;6187357;23;20374;-93
2023/09/21 05:22:04;;;;;;;4.07;0.98;;;18.40;99.90;;;;;;6187027;23;20503;-91
2023/09/21 05:24:32;;;;;;;3.43;1.10;;;18.60;99.90;;;;;;6187488;23;20369;-92
2023/09/21 05:26:58;;;;;;;2.88;1.00;;;18.40;99.90;;;;;;6185815;23;20393;-91
2023/09/21 05:29:24;;;;;;;3.28;0.98;;;18.30;99.90;;;;;;6186798;23;20692;-92
2023/09/21 05:31:50;;;;;;;2.23;0.80;;;18.30;99.90;;;;;;6186420;23;20370;-93
2023/09/21 05:34:17;;;;;;;2.63;1.00;;;18.30;99.90;;;;;;6187027;23;20362;-92
2023/09/21 05:36:46;;;;;;;2.53;0.90;;;18.70;99.90;;;;;;6186826;23;20831;-91
2023/09/21 05:39:16;;;;;;;2.65;1.10;;;18.40;99.90;;;;;;6186192;23;20822;-92
2023/09/21 05:41:44;;;;;;;3.92;0.90;;;18.60;99.90;;;;;;6187595;23;20413;-92
2023/09/21 05:44:09;;;;;;;3.73;0.83;;;18.50;99.90;;;;;;6185883;23;20847;-92
2023/09/21 05:46:35;;;;;;;3.30;0.95;;;18.40;99.90;;;;;;6187208;23;20402;-93
2023/09/21 05:49:03;;;;;;;3.58;1.08;;;18.60;99.90;;;;;;6185623;23;20369;-93
2023/09/21 05:51:29;;;;;;;3.15;1.05;;;18.50;99.90;;;;;;6186994;23;20409;-93
2023/09/21 05:53:55;;;;;;;2.87;0.90;;;18.50;99.90;;;;;;6186721;23;20366;-92
2023/09/21 05:56:21;;;;;;;3.15;0.90;;;18.50;99.90;;;;;;6185383;23;20875;-92
2023/09/21 05:58:46;;;;;;;3.37;1.00;;;18.50;99.90;;;;;;6186929;23;20375;-90
2023/09/21 06:01:13;;;;;;;2.70;0.90;;;18.90;99.90;;;;;;6185922;23;21023;-93
2023/09/21 06:03:39;;;;;;;4.13;1.10;;;18.60;99.90;;;;;;6187358;23;20370;-92
2023/09/21 06:06:07;;;;;;;3.23;1.13;;;18.70;99.90;;;;;;6185906;23;20878;-92
2023/09/21 06:08:33;;;;;;;2.88;1.00;;;18.60;99.90;;;;;;6186876;23;20369;-92
2023/09/21 06:11:02;;;;;;;2.87;1.00;;;18.50;99.90;;;;;;6186322;23;20423;-91
2023/09/21 06:13:28;;;;;;;2.72;1.00;;;18.70;99.90;;;;;;6186088;23;20366;-92
2023/09/21 06:15:54;;;;;;;2.30;1.17;;;18.10;99.90;;;;;;6187192;23;20851;-92
2023/09/21 06:18:21;;;;;;;2.90;1.20;;;18.10;99.90;;;;;;6185513;23;20410;-93
2023/09/21 06:20:46;;;;;;;4.53;1.47;;;18.00;99.90;;;;;;6187265;23;20461;-91
2023/09/21 06:23:12;;;;;;;3.10;1.40;;;18.00;99.90;;;;;;6185291;23;20416;-92
2023/09/21 06:25:38;;;;;;;3.83;1.20;;;18.10;99.90;;;;;;6187371;23;20369;-92
2023/09/21 06:28:04;;;;;;;3.40;1.30;;;17.80;99.90;;;;;;6186271;23;20364;-93
2023/09/21 06:30:29;;;;;;;3.45;1.13;;;17.90;99.90;;;;;;6186923;23;20362;-92
2023/09/21 06:32:55;;;;;;;3.83;1.50;;;18.20;99.90;;;;;;6186952;23;20380;-91
2023/09/21 06:35:24;;;;;;;3.72;1.08;;;17.80;99.90;;;;;;6186193;23;20374;-92
2023/09/21 06:37:54;;;;;;;2.90;1.20;;;17.80;99.90;;;;;;6186445;23;23324;-93
2023/09/21 06:40:24;;;;;;;2.88;1.10;;;17.80;99.90;;;;;;6185484;23;20374;-92
2023/09/21 06:42:50;;;;;;;2.60;1.30;;;18.00;99.90;;;;;;6187502;23;20373;-92
2023/09/21 06:45:16;;;;;;;3.73;1.40;;;17.70;99.90;;;;;;6185481;23;20378;-92
2023/09/21 06:47:42;;;;;;;4.25;1.55;;;17.60;99.90;;;;;;6186381;23;20440;-93
2023/09/21 06:50:10;;;;;;;3.63;1.00;;;17.60;99.90;;;;;;6185916;23;20699;-93
2023/09/21 06:52:37;;;;;;;3.28;1.30;;;17.60;99.90;;;;;;6186424;23;20902;-93
2023/09/21 06:55:05;;;;;;;3.58;1.40;;;18.00;99.90;;;;;;6186378;23;20389;-92
2023/09/21 06:57:36;;;;;;;3.57;1.53;;;17.60;99.90;;;;;;6185307;23;21008;-94
2023/09/21 07:00:02;;;;;;;2.90;1.20;;;17.90;99.90;;;;;;6186898;23;20432;-92
2023/09/21 07:02:28;;;;;;;3.33;1.30;;;17.60;99.90;;;;;;6185168;23;20398;-93
2023/09/21 07:04:54;;;;;;;2.88;1.60;;;18.00;99.90;;;;;;6187233;23;20413;-93
2023/09/21 07:07:21;;;;;;;3.80;1.50;;;17.50;99.90;;;;;;6186149;23;20377;-93
2023/09/21 07:09:46;;;;;;;3.22;1.42;;;17.30;99.90;;;;;;6185793;23;20365;-92
2023/09/21 07:12:12;;;;;;;3.50;1.63;;;17.90;99.90;;;;;;6185953;23;20406;-93
2023/09/21 07:14:41;;;;;;;5.30;1.50;;;17.60;99.90;;;;;;6184774;23;20437;-93
2023/09/21 07:17:07;;;;;;;3.58;1.48;;;17.60;99.90;;;;;;6186171;23;20455;-91
2023/09/21 07:19:36;;;;;;;3.40;1.77;;;17.30;99.90;;;;;;6184811;23;20851;-93
2023/09/21 07:22:03;;;;;;;5.38;1.83;;;17.60;99.90;;;;;;6186607;23;20394;-92
2023/09/21 07:24:29;;;;;;;4.05;1.85;;;17.80;99.90;;;;;;6185601;23;20377;-92
2023/09/21 07:26:56;;;;;;;4.25;2.00;;;17.60;99.90;;;;;;6188525;23;20819;-93
2023/09/21 07:29:23;;;;;;;3.67;1.90;;;17.40;99.90;;;;;;6187471;23;20373;-93
2023/09/21 07:31:49;;;;;;;4.88;2.45;;;17.90;99.90;;;;;;6187836;23;20469;-93
2023/09/21 07:34:15;;;;;;;5.72;2.40;;;17.80;99.90;;;;;;6188013;23;20406;-93
2023/09/21 07:36:41;;;;;;;5.15;2.78;;;17.50;99.90;;;;;;6187276;23;20384;-93
2023/09/21 07:39:10;;;;;;;5.18;3.08;;;17.50;99.90;;;;;;6188044;23;20366;-93
2023/09/21 07:41:36;;;;;;;4.82;3.20;;;17.80;99.90;;;;;;6186575;23;20447;-93
2023/09/21 07:44:03;;;;;;;4.63;2.72;;;17.30;99.90;;;;;;6187880;23;20390;-93
2023/09/21 07:46:29;;;;;;;3.70;1.92;;;17.30;99.90;;;;;;6186978;23;20711;-92
2023/09/21 07:48:55;;;;;;;3.58;0.90;;;17.20;99.90;;;;;;6187629;23;20381;-93
2023/09/21 07:51:21;;;;;;;1.43;0.67;;;17.20;99.90;;;;;;6187690;23;20452;-94
2023/09/21 07:53:47;;;;;;;2.47;0.63;;;16.80;99.90;;;;;;6186130;23;20370;-94
2023/09/21 07:56:13;;;;;;;2.35;0.40;;;16.80;99.90;;;;;;6187805;23;20408;-93
2023/09/21 07:58:39;;;;;;;3.35;0.60;;;16.60;99.90;;;;;;6187656;23;20829;-94
2023/09/21 08:01:05;;;;;;;1.38;0.40;;;16.30;99.90;;;;;;6188105;23;20792;-93
2023/09/21 08:03:31;;;;;;;2.00;0.50;;;16.40;99.90;;;;;;6184933;23;20476;-94
2023/09/21 08:05:59;;;;;;;2.20;0.40;;;16.20;99.90;;;;;;6187953;23;20644;-93
2023/09/21 08:08:25;;;;;;;2.45;0.40;;;16.40;99.90;;;;;;6189707;23;20431;-94
2023/09/21 08:10:53;;;;;;;2.67;0.63;;;16.20;99.90;;;;;;6186774;23;20369;-92
2023/09/21 08:13:20;;;;;;;2.37;0.57;;;16.00;99.90;;;;;;6186951;23;20411;-93
2023/09/21 08:15:46;;;;;;;2.50;0.45;;;15.80;99.90;;;;;;6186542;23;20376;-92
2023/09/21 08:18:12;;;;;;;2.08;0.57;;;16.40;99.90;;;;;;6187709;23;20369;-94
2023/09/21 08:20:41;;;;;;;2.90;0.75;;;16.30;99.90;;;;;;6186102;23;20374;-93
2023/09/21 08:23:07;;;;;;;5.05;0.80;;;16.00;99.90;;;;;;6187402;23;20377;-94
2023/09/21 08:25:34;;;;;;;4.75;1.10;;;16.30;99.90;;;;;;6186702;23;20358;-94
2023/09/21 08:28:00;;;;;;;4.53;0.70;;;16.20;99.90;;;;;;6187666;23;20707;-91
2023/09/21 08:30:26;;;;;;;4.57;0.85;;;16.00;99.90;;;;;;6187663;23;20361;-93
2023/09/21 08:32:52;;;;;;;2.80;0.60;;;16.20;99.90;;;;;;6187642;23;20398;-92
2023/09/21 08:35:18;;;;;;;3.28;0.80;;;16.10;99.90;;;;;;6188062;23;21114;-92
2023/09/21 08:37:43;;;;;;;2.87;1.03;;;16.40;99.90;;;;;;6187103;23;20845;-92
2023/09/21 08:40:10;;;;;;;3.77;1.00;;;15.90;99.90;;;;;;6188446;23;20398;-91
2023/09/21 08:42:36;;;;;;;3.85;1.30;;;16.00;99.90;;;;;;6186777;23;20476;-91
2023/09/21 08:45:08;;;;;;;2.92;1.48;;;16.20;99.90;;;;;;6188600;23;20886;-92
2023/09/21 08:47:34;;;;;;;4.60;1.30;;;16.00;99.90;;;;;;6187633;23;20370;-91
2023/09/21 08:50:07;;;;;;;5.10;0.77;;;16.10;99.90;;;;;;6187897;23;20366;-91
2023/09/21 08:52:33;;;;;;;4.63;1.50;;;16.20;99.90;;;;;;6187726;23;20366;-92
2023/09/21 08:54:59;;;;;;;3.75;1.33;;;15.90;99.90;;;;;;6186556;23;20460;-90
2023/09/21 08:57:25;;;;;;;4.80;1.83;;;16.20;99.90;;;;;;6188110;23;20810;-92
2023/09/21 08:59:55;;;;;;;6.95;1.73;;;16.10;99.90;;;;;;6187125;23;20374;-92
2023/09/21 09:02:23;;;;;;;6.30;1.80;;;15.90;99.90;;;;;;6188279;23;20397;-92
2023/09/21 09:04:50;;;;;;;3.23;1.00;;;16.20;99.90;;;;;;6187364;23;20370;-92
2023/09/21 09:07:16;;;;;;;3.30;0.95;;;16.20;99.90;;;;;;6187272;23;20362;-92
2023/09/21 09:09:41;;;;;;;4.43;1.50;;;16.00;99.90;;;;;;6187624;23;20711;-92
2023/09/21 09:12:21;;;;;;;3.97;1.07;;;16.30;99.90;;;;;;6186873;23;20366;-92
2023/09/21 09:14:47;;;;;;;4.15;1.20;;;16.00;99.90;;;;;;6188522;23;20378;-92
2023/09/21 09:17:14;;;;;;;3.20;0.73;;;16.20;99.90;;;;;;6186760;23;20370;-93
2023/09/21 09:19:40;;;;;;;2.87;0.73;;;16.50;99.90;;;;;;6187929;23;20372;-93
2023/09/21 09:22:05;;;;;;;5.28;0.85;;;16.10;99.90;;;;;;6187028;23;20473;-93
2023/09/21 09:24:31;;;;;;;3.38;0.60;;;16.10;99.90;;;;;;6187121;23;20394;-95
2023/09/21 09:27:00;;;;;;;2.10;0.40;;;16.10;99.90;;;;;;6187212;23;20358;-92
2023/09/21 09:29:26;;;;;;;2.60;0.60;;;16.20;99.90;;;;;;6186402;23;20362;-92
2023/09/21 09:31:52;;;;;;;4.13;0.60;;;16.30;99.90;;;;;;6187526;23;20454;-92
2023/09/21 09:34:18;;;;;;;2.08;0.40;;;16.80;99.90;;;;;;6185877;23;20954;-93
2023/09/21 09:36:52;;;;;;;2.00;0.40;;;16.40;99.90;;;;;;6187568;23;20370;-93
2023/09/21 09:39:19;;;;;;;1.27;0.43;;;16.90;99.90;;;;;;6186612;23;20696;-93
2023/09/21 09:41:49;;;;;;;2.07;0.40;;;16.60;99.90;;;;;;6186678;23;20394;-92
2023/09/21 09:44:21;;;;;;;2.25;0.40;;;16.80;99.90;;;;;;6186844;23;20374;-93
2023/09/21 09:46:48;;;;;;;2.38;0.30;;;16.20;99.90;;;;;;6185978;23;20441;-93
2023/09/21 09:49:16;;;;;;;1.10;0.30;;;16.90;99.90;;;;;;6187126;23;20420;-92
2023/09/21 09:51:46;;;;;;;2.03;0.38;;;17.00;99.90;;;;;;6186539;23;20795;-93
2023/09/21 09:54:16;;;;;;;1.70;0.30;;;16.90;99.90;;;;;;6187549;23;20405;-93
2023/09/21 09:56:42;;;;;;;1.80;0.40;;;16.80;99.90;;;;;;6186232;23;20396;-93
2023/09/21 09:59:12;;;;;;;2.30;0.30;;;16.90;99.90;;;;;;6187199;23;20401;-93
2023/09/21 10:01:44;;;;;;;1.45;0.30;;;17.00;99.90;;;;;;6186781;23;20389;-93
2023/09/21 10:04:10;;;;;;;1.98;0.40;;;16.80;99.90;;;;;;6186055;23;20410;-94
2023/09/21 10:06:36;;;;;;;1.23;0.30;;;17.00;99.90;;;;;;6187539;23;20714;-91
2023/09/21 10:09:10;;;;;;;1.60;0.50;;;17.10;99.90;;;;;;6186095;23;20402;-92
2023/09/21 10:11:57;;;;;;;3.35;1.00;;;16.90;99.90;;;;;;6187852;23;20358;-93
2023/09/21 10:14:23;;;;;;;2.22;0.60;;;16.80;99.90;;;;;;6186666;23;20413;-92
2023/09/21 10:16:54;;;;;;;1.60;0.77;;;16.90;99.90;;;;;;6186858;23;20884;-91
2023/09/21 10:19:28;;;;;;;2.55;0.80;;;16.90;99.90;;;;;;6187157;23;20366;-92
2023/09/21 10:21:57;;;;;;;1.88;0.65;;;16.90;99.90;;;;;;6186110;23;20397;-93
2023/09/21 10:24:26;;;;;;;1.75;0.60;;;17.20;99.90;;;;;;6187121;23;20468;-94
2023/09/21 10:26:53;;;;;;;1.50;0.60;;;16.90;99.90;;;;;;6186027;23;20366;-92
2023/09/21 10:29:32;;;;;;;1.53;0.40;;;16.80;99.90;;;;;;6186927;23;20920;-93
2023/09/21 10:32:04;;;;;;;0.70;0.20;;;16.80;99.90;;;;;;6186646;23;20850;-93
2023/09/21 10:34:31;;;;;;;1.10;0.30;;;16.90;99.90;;;;;;6186350;23;20362;-93
2023/09/21 10:37:13;;;;;;;1.30;0.30;;;17.10;99.90;;;;;;6186765;23;20370;-92
2023/09/21 10:39:39;;;;;;;2.13;0.50;;;17.30;99.90;;;;;;6186036;23;20871;-93
2023/09/21 10:42:06;;;;;;;1.50;0.30;;;16.90;99.90;;;;;;6187581;23;20465;-92
2023/09/21 10:44:57;;;;;;;1.00;0.28;;;16.90;99.90;;;;;;6186619;23;20422;-92
2023/09/21 10:47:28;;;;;;;1.30;0.30;;;17.00;99.90;;;;;;6186525;23;20369;-92
2023/09/21 10:49:59;;;;;;;1.17;0.25;;;17.00;99.90;;;;;;6187327;23;20397;-91
2023/09/21 10:52:29;;;;;;;2.70;0.30;;;17.00;99.90;;;;;;6186354;23;20434;-92
2023/09/21 10:54:56;;;;;;;1.52;0.30;;;17.00;99.90;;;;;;6186902;23;20448;-92
2023/09/21 10:57:27;;;;;;;0.83;0.23;;;17.00;99.90;;;;;;6186601;23;20441;-92
2023/09/21 10:59:53;;;;;;;1.38;0.30;;;17.20;99.90;;;;;;6188995;23;20441;-91
2023/09/21 11:02:21;;;;;;;1.30;0.32;;;16.90;99.90;;;;;;6188731;23;20862;-92
2023/09/21 11:04:48;;;;;;;2.23;0.50;;;17.20;99.90;;;;;;6188537;23;20388;-92
2023/09/21 11:07:16;;;;;;;1.20;0.30;;;16.80;99.90;;;;;;6189055;23;20469;-91
2023/09/21 11:09:43;;;;;;;0.98;0.20;;;16.80;99.90;;;;;;6188110;23;20405;-92
2023/09/21 11:12:13;;;;;;;1.60;0.40;;;17.10;99.90;;;;;;6189634;23;20423;-93
2023/09/21 11:14:43;;;;;;;1.47;0.40;;;17.00;99.90;;;;;;6188308;23;20743;-91
2023/09/21 11:17:16;;;;;;;1.58;0.30;;;16.80;99.90;;;;;;6188556;23;20761;-92
2023/09/21 11:19:43;;;;;;;2.00;0.40;;;16.70;99.90;;;;;;6188650;23;20362;-92
2023/09/21 11:22:09;;;;;;;1.58;0.30;;;16.90;99.90;;;;;;6187929;23;20394;-93
2023/09/21 11:24:39;;;;;;;2.00;0.50;;;16.70;99.90;;;;;;6189016;23;20365;-93
2023/09/21 11:27:09;;;;;;;1.50;0.40;;;16.90;99.90;;;;;;6187805;23;20374;-93
2023/09/21 11:29:35;;;;;;;1.23;0.50;;;16.80;99.90;;;;;;6189120;23;20730;-92
2023/09/21 11:32:01;;;;;;;1.80;0.50;;;17.10;99.90;;;;;;6187877;23;20374;-93
2023/09/21 11:34:27;;;;;;;2.03;0.40;;;17.30;99.90;;;;;;6188386;23;20377;-93
2023/09/21 11:36:52;;;;;;;2.30;0.50;;;17.10;99.90;;;;;;6188649;23;20362;-92
2023/09/21 11:39:22;;;;;;;1.75;0.40;;;17.20;99.90;;;;;;6188639;23;20374;-92
2023/09/21 11:41:51;;;;;;;1.85;0.40;;;17.50;99.90;;;;;;6188501;23;20402;-92
2023/09/21 11:44:17;;;;;;;1.27;0.47;;;17.20;99.90;;;;;;6187523;23;20664;-92
2023/09/21 11:46:44;;;;;;;2.70;0.60;;;16.90;99.90;;;;;;6188803;23;20365;-92
2023/09/21 11:49:10;;;;;;;3.30;0.73;;;16.90;99.90;;;;;;6187706;23;20866;-91
2023/09/21 11:51:36;;;;;;;2.83;0.90;;;17.00;99.90;;;;;;6188804;23;20366;-92
2023/09/21 11:54:05;;;;;;;4.55;1.27;;;17.20;99.90;;;;;;6187713;23;20699;-92
2023/09/21 11:56:31;;;;;;;1.67;0.40;;;16.80;99.90;;;;;;6188225;23;20695;-94
2023/09/21 11:59:01;;;;;;;3.00;0.70;;;16.70;99.90;;;;;;6188674;23;20374;-94
2023/09/21 12:01:28;;;;;;;2.00;0.50;;;16.80;99.90;;;;;;6187111;23;20386;-93
2023/09/21 12:03:56;;;;;;;2.15;0.70;;;16.80;99.90;;;;;;6189105;23;20452;-93
2023/09/21 12:06:27;;;;;;;1.70;0.60;;;16.70;99.90;;;;;;6187504;23;20400;-91
2023/09/21 12:08:54;;;;;;;2.22;0.98;;;16.90;99.90;;;;;;6188676;23;20397;-91
2023/09/21 12:11:22;;;;;;;1.38;0.70;;;17.00;99.90;;;;;;6187999;23;20406;-91
2023/09/21 12:13:48;;;;;;;1.83;0.67;;;17.10;99.90;;;;;;6187377;23;20381;-92
2023/09/21 12:16:14;;;;;;;2.08;0.82;;;17.50;99.90;;;;;;6188006;23;20737;-93
2023/09/21 12:18:41;;;;;;;1.30;0.60;;;17.40;99.90;;;;;;6187707;23;20374;-93
2023/09/21 12:21:07;;;;;;;2.07;0.80;;;17.40;99.90;;;;;;6188515;23;20390;-92
2023/09/21 12:23:35;;;;;;;1.63;0.80;;;17.70;99.90;;;;;;6187422;23;20397;-92
2023/09/21 12:26:00;;;;;;;2.10;1.08;;;17.70;99.90;;;;;;6188314;23;20366;-92
2023/09/21 12:28:27;;;;;;;1.88;0.80;;;17.70;99.90;;;;;;6187523;23;20380;-91
2023/09/21 12:30:54;;;;;;;1.38;0.80;;;17.70;99.90;;;;;;6188000;23;20739;-92
2023/09/21 12:33:21;;;;;;;2.92;1.20;;;17.70;99.90;;;;;;6187953;23;20376;-92
2023/09/21 12:35:46;;;;;;;2.63;1.20;;;17.60;99.90;;;;;;6187506;23;20847;-90
2023/09/21 12:38:13;;;;;;;3.20;1.00;;;17.90;99.90;;;;;;6188159;23;20374;-91
2023/09/21 12:40:39;;;;;;;1.73;0.60;;;17.60;99.90;;;;;;6187155;23;20373;-92
2023/09/21 12:43:09;;;;;;;2.15;0.93;;;17.80;99.90;;;;;;6188449;23;20366;-93
2023/09/21 12:45:35;;;;;;;3.17;1.07;;;17.60;99.90;;;;;;6186909;23;20408;-92
2023/09/21 12:48:01;;;;;;;1.67;0.60;;;17.60;99.90;;;;;;6187896;23;20369;-93
2023/09/21 12:50:28;;;;;;;2.47;0.93;;;17.50;99.90;;;;;;6187731;23;20377;-93
2023/09/21 12:52:54;;;;;;;2.17;0.88;;;17.30;99.90;;;;;;6187432;23;20381;-93